Terminal Aerodrome Forecast
Issued by NWS

Home | Current Version | Previous Version | Text Only | Print | Product List | Glossary On
Versions: 1 2 3 4 5 6 7 8 9 10 11 12 13
000
FTUS45 KMSO 192300
TAFSMN
TAF
KSMN 192330Z 2000/2024 VRB06KT P6SM SCT120
     FM200800 01012KT P6SM VCSH BKN070
     FM201500 33010KT P6SM SCT100
      AMD LTD TO CLD VIS AND WIND=

USA.gov is the U.S. government's official web portal to all federal, state and local government web resources and services.